Time;durP1;ratioP1;P1;durP2;ratioP2;P2;SDS_P1;SDS_P2;PMS_P1;PMS_P2;Temp;Humidity;BMP_temperature;BMP_pressure;BME280_temperature;BME280_humidity;BME280_pressure;Samples;Min_cycle;Max_cycle;Signal;HPM_P1;HPM_P2
2021/06/20 00:02:36;;;;;;;8.98;6.47;;;;;;;24.66;55.64;98840.94;2221510;80;20936;-80
2021/06/20 00:05:37;;;;;;;10.13;6.03;;;;;;;24.78;55.12;98846.18;2221818;80;21340;-79
2021/06/20 00:08:38;;;;;;;8.90;5.92;;;;;;;24.66;54.79;98841.41;2221858;80;20960;-79
2021/06/20 00:11:39;;;;;;;8.80;5.90;;;;;;;24.70;54.78;98843.86;2222492;80;20988;-80
2021/06/20 00:14:40;;;;;;;10.38;6.40;;;;;;;24.75;54.61;98848.98;2222451;80;21004;-80
2021/06/20 00:17:41;;;;;;;8.65;5.55;;;;;;;24.76;54.24;98843.58;2221977;80;21466;-79
2021/06/20 00:20:42;;;;;;;6.08;5.58;;;;;;;24.67;54.04;98848.47;2221839;80;20925;-79
2021/06/20 00:23:43;;;;;;;12.73;5.78;;;;;;;24.69;54.05;98844.80;2221713;80;20936;-79
2021/06/20 00:26:44;;;;;;;12.10;6.30;;;;;;;24.75;53.84;98844.98;2221899;80;20960;-79
2021/06/20 00:29:44;;;;;;;11.83;5.90;;;;;;;24.80;53.61;98852.78;2222214;80;20983;-80
2021/06/20 00:32:45;;;;;;;6.80;6.10;;;;;;;24.75;53.24;98844.98;2222231;80;20992;-81
2021/06/20 00:35:47;;;;;;;10.55;5.70;;;;;;;24.63;53.31;98837.53;2221857;80;20987;-80
2021/06/20 00:38:48;;;;;;;8.25;5.95;;;;;;;24.63;53.56;98840.20;2222189;80;21012;-80
2021/06/20 00:41:49;;;;;;;11.22;6.00;;;;;;;24.54;53.26;98837.48;2222368;80;20936;-80
2021/06/20 00:44:50;;;;;;;9.20;5.85;;;;;;;24.25;53.07;98831.17;2222136;80;20944;-81
2021/06/20 00:47:51;;;;;;;9.80;6.05;;;;;;;24.00;53.79;98832.23;2222112;80;20976;-80
2021/06/20 00:50:52;;;;;;;10.45;5.75;;;;;;;24.08;54.00;98832.77;2222529;80;20987;-79
2021/06/20 00:53:53;;;;;;;9.53;6.67;;;;;;;23.86;53.99;98836.42;2222432;80;20948;-80
2021/06/20 00:56:54;;;;;;;6.22;5.62;;;;;;;23.84;54.31;98832.48;2221869;80;21014;-81
2021/06/20 00:59:55;;;;;;;10.70;5.47;;;;;;;23.90;54.09;98841.55;2222166;80;20978;-79
2021/06/20 01:02:56;;;;;;;10.28;6.17;;;;;;;23.91;54.01;98837.95;2221930;80;21003;-79
2021/06/20 01:05:57;;;;;;;6.25;5.45;;;;;;;23.88;54.29;98831.42;2222064;80;21320;-80
2021/06/20 01:08:58;;;;;;;8.23;6.65;;;;;;;23.79;54.05;98834.48;2222291;80;21012;-80
2021/06/20 01:11:59;;;;;;;7.10;5.87;;;;;;;23.62;54.99;98832.98;2222567;80;20948;-80
2021/06/20 01:15:00;;;;;;;10.40;6.08;;;;;;;23.54;54.97;98823.93;2222165;80;21344;-84
2021/06/20 01:18:01;;;;;;;8.55;5.55;;;;;;;23.57;55.14;98822.97;2221809;80;21035;-85
2021/06/20 01:21:03;;;;;;;14.63;6.53;;;;;;;23.55;54.62;98818.17;2222440;80;20956;-83
2021/06/20 01:24:04;;;;;;;6.87;6.17;;;;;;;23.35;54.97;98815.78;2221975;80;21388;-81
2021/06/20 01:27:05;;;;;;;6.60;5.92;;;;;;;22.86;54.14;98819.05;2222256;80;21035;-82
2021/06/20 01:30:06;;;;;;;10.82;6.03;;;;;;;22.07;55.08;98817.05;2221917;80;20996;-80
2021/06/20 01:33:07;;;;;;;9.70;6.58;;;;;;;21.42;56.43;98810.31;2221993;80;21557;-81
2021/06/20 01:36:08;;;;;;;7.05;6.00;;;;;;;20.88;57.50;98805.78;2222072;80;21011;-81
2021/06/20 01:39:10;;;;;;;7.42;6.25;;;;;;;20.41;58.77;98804.95;2222448;80;21404;-81
2021/06/20 01:42:13;;;;;;;8.18;5.80;;;;;;;19.99;59.97;98802.55;2222249;80;20976;-80
2021/06/20 01:45:13;;;;;;;6.40;5.70;;;;;;;19.70;61.06;98802.82;2222274;80;20951;-83
2021/06/20 01:48:14;;;;;;;9.78;6.45;;;;;;;19.48;61.86;98809.53;2222361;80;21407;-81
2021/06/20 01:51:15;;;;;;;9.90;6.30;;;;;;;19.28;62.55;98803.84;2222179;80;21000;-81
2021/06/20 01:54:16;;;;;;;8.08;6.37;;;;;;;19.08;63.59;98802.54;2222130;80;20982;-80
2021/06/20 01:57:17;;;;;;;8.10;6.67;;;;;;;18.91;63.83;98808.62;2222253;80;21046;-81
2021/06/20 02:00:18;;;;;;;10.13;6.62;;;;;;;18.77;64.56;98796.16;2222262;80;21316;-81
2021/06/20 02:03:19;;;;;;;7.33;6.70;;;;;;;18.61;65.27;98797.36;2222354;80;21332;-82
2021/06/20 02:06:20;;;;;;;8.08;7.15;;;;;;;18.47;65.74;98784.44;2222397;80;21004;-80
2021/06/20 02:09:21;;;;;;;8.53;6.70;;;;;;;18.37;66.63;98781.12;2222191;80;21340;-82
2021/06/20 02:12:22;;;;;;;7.47;6.65;;;;;;;18.31;66.98;98780.38;2222316;80;21268;-81
2021/06/20 02:15:23;;;;;;;9.35;6.25;;;;;;;18.27;67.31;98774.28;2222217;80;21015;-81
2021/06/20 02:18:24;;;;;;;7.62;6.83;;;;;;;18.24;67.57;98774.34;2222241;80;21043;-82
2021/06/20 02:21:25;;;;;;;8.10;6.60;;;;;;;18.22;68.03;98775.27;2222146;80;20956;-80
2021/06/20 02:24:28;;;;;;;7.87;6.70;;;;;;;18.21;68.28;98766.48;2222267;80;20932;-82
2021/06/20 02:27:29;;;;;;;12.35;7.00;;;;;;;18.21;70.61;98768.25;2222219;80;20955;-82
2021/06/20 02:30:29;;;;;;;9.18;7.80;;;;;;;18.21;69.07;98762.52;2222394;80;21007;-81
2021/06/20 02:33:30;;;;;;;12.05;7.40;;;;;;;18.22;70.09;98760.29;2222096;80;20995;-82
2021/06/20 02:36:31;;;;;;;9.60;6.78;;;;;;;18.19;69.26;98759.00;2222227;80;21336;-83
2021/06/20 02:39:33;;;;;;;7.60;6.78;;;;;;;18.15;69.83;98761.28;2222386;80;20988;-81
2021/06/20 02:42:33;;;;;;;7.92;6.80;;;;;;;18.14;70.09;98768.34;2222241;80;20988;-82
2021/06/20 02:45:34;;;;;;;13.35;7.45;;;;;;;18.11;70.08;98770.17;2222110;80;20988;-83
2021/06/20 02:48:35;;;;;;;9.75;7.30;;;;;;;18.09;70.20;98774.16;2222095;80;21030;-82
2021/06/20 02:51:37;;;;;;;9.60;6.90;;;;;;;18.11;70.50;98778.09;2222176;80;20928;-83
2021/06/20 02:54:49;;;;;;;11.28;7.53;;;;;;;18.14;71.05;98774.07;2221764;80;20947;-82
2021/06/20 02:57:41;;;;;;;7.62;6.75;;;;;;;18.17;70.66;98781.94;2220616;80;20983;-83
2021/06/20 03:00:41;;;;;;;10.50;7.03;;;;;;;18.22;70.96;98777.91;2222026;80;21355;-81
2021/06/20 03:03:42;;;;;;;7.60;6.87;;;;;;;18.23;70.95;98787.13;2221998;80;20924;-82
2021/06/20 03:06:44;;;;;;;7.90;7.20;;;;;;;18.24;71.35;98780.95;2221888;80;21011;-83
2021/06/20 03:09:45;;;;;;;10.18;7.67;;;;;;;18.27;71.23;98781.34;2221966;80;21387;-81
2021/06/20 03:12:46;;;;;;;8.75;6.87;;;;;;;18.27;71.02;98778.24;2221962;80;20952;-80
2021/06/20 03:15:48;;;;;;;7.58;6.97;;;;;;;18.29;70.82;98779.53;2221939;80;21023;-81
2021/06/20 03:18:49;;;;;;;9.50;6.67;;;;;;;18.33;70.63;98785.17;2217347;80;21000;-82
2021/06/20 03:21:50;;;;;;;11.53;6.30;;;;;;;18.40;70.61;98785.47;2211772;81;20976;-82
2021/06/20 03:24:51;;;;;;;7.55;6.75;;;;;;;18.48;70.62;98782.66;2211505;81;20928;-82
2021/06/20 03:27:52;;;;;;;9.60;6.83;;;;;;;18.54;70.63;98783.41;2211707;81;20925;-82
2021/06/20 03:30:53;;;;;;;11.60;7.70;;;;;;;18.60;70.57;98776.67;2211565;81;20956;-81
2021/06/20 03:33:54;;;;;;;12.23;7.17;;;;;;;19.29;72.39;98775.16;2211502;81;20949;-80
2021/06/20 03:36:55;;;;;;;10.08;7.35;;;;;;;20.64;68.50;98776.86;2211652;81;21372;-79
2021/06/20 03:39:56;;;;;;;9.88;7.15;;;;;;;21.47;65.42;98774.31;2212092;81;21008;-80
2021/06/20 03:42:57;;;;;;;8.20;6.42;;;;;;;22.17;63.33;98771.47;2211544;81;20964;-80
2021/06/20 03:45:58;;;;;;;8.38;6.60;;;;;;;22.39;61.77;98776.00;2211938;81;20991;-79
2021/06/20 03:48:59;;;;;;;8.90;6.87;;;;;;;22.66;60.51;98773.67;2211677;81;21051;-80
2021/06/20 03:52:00;;;;;;;7.90;6.20;;;;;;;22.93;59.64;98775.76;2211731;81;20933;-79
2021/06/20 03:55:01;;;;;;;6.78;6.17;;;;;;;23.19;58.06;98776.05;2211672;81;20956;-80
2021/06/20 03:58:05;;;;;;;6.72;6.10;;;;;;;23.23;57.97;98775.00;2211777;81;21086;-80
2021/06/20 04:01:04;;;;;;;7.78;6.67;;;;;;;23.08;58.26;98780.48;2211451;80;21020;-80
2021/06/20 04:04:05;;;;;;;6.67;5.70;;;;;;;23.49;57.54;98781.50;2211880;81;21059;-80
2021/06/20 04:07:06;;;;;;;6.25;5.70;;;;;;;23.89;56.76;98780.31;2211977;81;21383;-80
2021/06/20 04:10:07;;;;;;;5.67;5.17;;;;;;;23.92;55.51;98782.37;2211616;81;21369;-79
2021/06/20 04:13:08;;;;;;;6.42;5.50;;;;;;;24.17;55.29;98788.84;2211730;81;21372;-80
2021/06/20 04:16:09;;;;;;;6.45;5.42;;;;;;;24.49;54.36;98788.80;2211738;81;20972;-80
2021/06/20 04:19:10;;;;;;;6.72;5.95;;;;;;;24.71;53.41;98780.67;2211663;80;21019;-79
2021/06/20 04:22:11;;;;;;;5.55;5.05;;;;;;;24.99;52.94;98774.93;2211133;81;20940;-79
2021/06/20 04:25:15;;;;;;;6.33;5.47;;;;;;;25.12;52.08;98769.87;2210858;81;20995;-80
2021/06/20 04:28:19;;;;;;;5.78;5.00;;;;;;;25.32;51.75;98763.98;2211186;81;21031;-79
2021/06/20 04:31:19;;;;;;;5.05;4.65;;;;;;;25.37;51.09;98765.95;2211254;81;21040;-79
2021/06/20 04:34:20;;;;;;;9.33;5.35;;;;;;;25.44;50.35;98769.66;2211089;81;21424;-79
2021/06/20 04:37:21;;;;;;;5.75;4.30;;;;;;;25.49;50.36;98763.61;2213482;81;21016;-82
2021/06/20 04:40:24;;;;;;;7.75;4.70;;;;;;;25.40;50.42;98762.27;2213421;81;21329;-80
2021/06/20 04:43:38;;;;;;;5.33;4.37;;;;;;;25.54;50.20;98757.09;2212989;81;21016;-79
2021/06/20 04:46:28;;;;;;;8.65;4.67;;;;;;;25.68;49.99;98755.09;2211875;80;21001;-80
2021/06/20 04:49:29;;;;;;;7.78;4.60;;;;;;;25.64;49.46;98749.01;2211778;81;21371;-79
2021/06/20 04:52:30;;;;;;;7.17;5.40;;;;;;;25.39;50.11;98748.52;2212480;81;20943;-79
2021/06/20 04:55:31;;;;;;;4.70;4.20;;;;;;;25.36;50.14;98753.54;2213108;81;20975;-80
2021/06/20 04:58:32;;;;;;;5.37;4.87;;;;;;;25.59;49.07;98751.05;2212716;81;20988;-79
2021/06/20 05:01:33;;;;;;;7.55;6.72;;;;;;;25.59;49.22;98756.86;2212619;81;20933;-79
2021/06/20 05:04:34;;;;;;;9.20;6.10;;;;;;;25.71;49.13;98759.81;2212302;81;20936;-81
2021/06/20 05:07:35;;;;;;;5.40;4.72;;;;;;;25.91;48.63;98744.08;2212553;81;20992;-81
2021/06/20 05:10:36;;;;;;;74.12;66.72;;;;;;;26.05;48.27;98743.87;2212305;81;21032;-82
2021/06/20 05:13:37;;;;;;;266.40;238.40;;;;;;;26.23;48.26;98754.94;2211681;81;20968;-83
2021/06/20 05:16:38;;;;;;;98.58;87.97;;;;;;;26.06;48.61;98757.16;2212186;81;21067;-84
2021/06/20 05:19:39;;;;;;;37.38;33.48;;;;;;;26.06;48.63;98753.63;2216950;80;21047;-82
2021/06/20 05:22:40;;;;;;;13.40;12.18;;;;;;;26.20;48.43;98753.75;2222066;80;20941;-79
2021/06/20 05:25:41;;;;;;;8.88;8.08;;;;;;;26.20;47.91;98751.08;2221580;80;21356;-80
2021/06/20 05:28:42;;;;;;;7.75;6.25;;;;;;;26.26;48.02;98738.72;2221498;80;21400;-80
2021/06/20 05:31:43;;;;;;;5.92;5.33;;;;;;;26.36;47.59;98738.64;2221959;80;21317;-80
2021/06/20 05:34:44;;;;;;;7.08;4.75;;;;;;;26.09;48.22;98727.58;2221648;80;20927;-80
2021/06/20 05:37:45;;;;;;;6.08;5.10;;;;;;;26.21;47.75;98731.41;2221412;80;21370;-79
2021/06/20 05:40:47;;;;;;;5.72;5.08;;;;;;;26.29;47.49;98733.20;2221607;80;20983;-79
2021/06/20 05:43:48;;;;;;;7.92;4.75;;;;;;;26.34;47.34;98736.52;2221616;80;21316;-79
2021/06/20 05:46:49;;;;;;;92.45;82.70;;;;;;;26.41;47.36;98737.92;2221586;80;20935;-80
2021/06/20 05:49:49;;;;;;;203.20;182.78;;;;;;;26.51;47.11;98739.16;2221629;80;20999;-79
2021/06/20 05:52:50;;;;;;;115.28;103.38;;;;;;;26.54;47.40;98737.64;2221472;80;20955;-78
2021/06/20 05:55:52;;;;;;;33.73;30.27;;;;;;;26.79;46.83;98727.78;2221576;80;20955;-80
2021/06/20 05:58:54;;;;;;;20.32;18.40;;;;;;;26.83;46.26;98731.15;2221936;80;21359;-79
2021/06/20 06:01:55;;;;;;;16.05;14.55;;;;;;;26.90;46.11;98737.45;2221680;80;20963;-80
2021/06/20 06:04:56;;;;;;;10.98;9.98;;;;;;;27.03;46.07;98746.16;2221302;80;21319;-81
2021/06/20 06:07:56;;;;;;;7.15;6.45;;;;;;;26.97;45.83;98747.34;2221492;80;21339;-79
2021/06/20 06:10:58;;;;;;;268.33;240.40;;;;;;;27.08;45.80;98742.27;2221844;80;20991;-80
2021/06/20 06:13:58;;;;;;;68.78;61.35;;;;;;;27.34;45.81;98741.25;2221476;80;20952;-81
2021/06/20 06:16:59;;;;;;;221.53;198.87;;;;;;;27.39;45.40;98744.53;2222284;80;20987;-81
2021/06/20 06:20:00;;;;;;;111.68;100.18;;;;;;;27.35;45.35;98764.42;2216333;80;21360;-79
2021/06/20 06:23:03;;;;;;;45.88;40.85;;;;;;;27.40;44.78;98768.56;2211663;81;20973;-80
2021/06/20 06:26:03;;;;;;;41.95;37.58;;;;;;;27.28;44.75;98766.59;2211565;81;20933;-81
2021/06/20 06:29:04;;;;;;;19.95;18.00;;;;;;;27.48;44.61;98775.69;2212255;81;20961;-80
2021/06/20 06:32:05;;;;;;;153.50;138.85;;;;;;;27.69;44.57;98774.08;2211905;81;20976;-79
2021/06/20 06:35:06;;;;;;;234.35;210.50;;;;;;;27.90;43.68;98773.70;2212064;81;21024;-80
2021/06/20 06:38:08;;;;;;;142.87;127.78;;;;;;;28.03;43.38;98771.63;2211938;81;20991;-80
2021/06/20 06:41:09;;;;;;;103.07;92.50;;;;;;;28.16;43.30;98762.73;2212041;81;21016;-79
2021/06/20 06:44:10;;;;;;;46.37;41.42;;;;;;;28.35;42.26;98763.84;2212050;81;21024;-80
2021/06/20 06:47:11;;;;;;;35.58;31.27;;;;;;;28.39;42.16;98769.88;2212163;81;21043;-82
2021/06/20 06:50:12;;;;;;;19.77;17.87;;;;;;;28.51;42.39;98769.98;2211756;81;20980;-81
2021/06/20 06:53:13;;;;;;;13.20;12.05;;;;;;;28.63;41.83;98770.20;2212061;81;21325;-80
2021/06/20 06:56:14;;;;;;;7.83;7.12;;;;;;;28.63;41.63;98775.58;2211893;81;21325;-79
2021/06/20 06:59:15;;;;;;;6.75;5.90;;;;;;;28.48;41.47;98770.66;2211801;81;20945;-79
2021/06/20 07:02:16;;;;;;;5.12;4.72;;;;;;;28.56;41.28;98780.44;2211960;81;21367;-80
2021/06/20 07:05:18;;;;;;;7.28;5.08;;;;;;;28.55;40.77;98778.70;2211976;81;20985;-80
2021/06/20 07:08:19;;;;;;;6.87;5.60;;;;;;;28.48;40.80;98780.91;2211611;81;20996;-79
2021/06/20 07:11:20;;;;;;;5.20;4.65;;;;;;;28.44;40.67;98771.32;2211415;81;21357;-81
2021/06/20 07:14:21;;;;;;;6.25;4.28;;;;;;;28.42;40.77;98761.16;2211452;81;21309;-79
2021/06/20 07:17:22;;;;;;;6.75;4.15;;;;;;;28.53;40.94;98761.35;2211464;81;21349;-79
2021/06/20 07:20:23;;;;;;;7.37;4.00;;;;;;;28.57;40.68;98762.02;2211117;81;21320;-79
2021/06/20 07:23:24;;;;;;;4.28;3.87;;;;;;;28.62;40.71;98755.91;2211502;81;21000;-79
2021/06/20 07:26:25;;;;;;;4.53;3.52;;;;;;;28.84;40.68;98756.78;2212002;81;20963;-79
2021/06/20 07:29:26;;;;;;;6.15;3.67;;;;;;;29.01;39.94;98754.36;2211548;81;20992;-81
2021/06/20 07:32:27;;;;;;;5.40;3.70;;;;;;;29.02;39.66;98755.60;2211898;81;20905;-80
2021/06/20 07:35:28;;;;;;;283.87;255.72;;;;;;;29.07;39.29;98754.83;2211987;81;21009;-79
2021/06/20 07:38:29;;;;;;;71.97;64.60;;;;;;;29.20;38.88;98762.95;2212005;81;21011;-79
2021/06/20 07:41:30;;;;;;;43.58;39.08;;;;;;;29.40;38.76;98757.60;2211910;81;20969;-81
2021/06/20 07:44:31;;;;;;;31.68;28.60;;;;;;;29.37;38.11;98762.70;2211959;81;21391;-80
2021/06/20 07:47:32;;;;;;;14.47;13.05;;;;;;;29.13;38.75;98750.39;2212190;81;21004;-80
2021/06/20 07:50:33;;;;;;;12.65;11.55;;;;;;;29.23;38.57;98758.72;2211711;81;21088;-81
2021/06/20 07:53:34;;;;;;;7.87;7.25;;;;;;;29.27;38.51;98759.37;2211839;81;20996;-80
2021/06/20 07:56:35;;;;;;;7.15;6.55;;;;;;;29.41;38.53;98745.89;2211903;81;21015;-80
2021/06/20 07:59:36;;;;;;;6.55;5.42;;;;;;;29.52;38.24;98729.96;2211798;81;20956;-80
2021/06/20 08:02:37;;;;;;;5.17;4.70;;;;;;;29.49;38.30;98738.23;2211812;81;20996;-80
2021/06/20 08:05:38;;;;;;;4.58;4.15;;;;;;;29.54;38.38;98741.95;2211912;81;21420;-79
2021/06/20 08:08:39;;;;;;;5.67;4.40;;;;;;;29.69;38.21;98734.20;2212277;81;20924;-79
2021/06/20 08:11:40;;;;;;;326.92;289.65;;;;;;;29.89;38.09;98746.30;2212024;81;21344;-83
2021/06/20 08:14:41;;;;;;;49.67;44.08;;;;;;;29.94;37.66;98741.45;2211769;81;20988;-80
2021/06/20 08:17:42;;;;;;;51.10;45.75;;;;;;;29.88;37.12;98733.80;2212395;81;21056;-80
2021/06/20 08:20:43;;;;;;;30.55;27.27;;;;;;;29.76;37.00;98745.78;2217851;80;21047;-80
2021/06/20 08:23:44;;;;;;;13.13;11.45;;;;;;;29.72;37.37;98734.85;2221958;80;21000;-80
2021/06/20 08:26:45;;;;;;;10.48;9.35;;;;;;;29.76;37.20;98730.13;2222053;80;20944;-80
2021/06/20 08:29:48;;;;;;;7.30;6.60;;;;;;;29.85;37.34;98742.09;2221919;80;21364;-79
2021/06/20 08:32:49;;;;;;;7.05;5.42;;;;;;;29.89;37.06;98737.73;2222058;80;21019;-80
2021/06/20 08:35:50;;;;;;;4.53;4.22;;;;;;;29.98;37.23;98737.59;2222160;80;20959;-79
2021/06/20 08:38:51;;;;;;;250.28;225.78;;;;;;;30.05;36.73;98741.61;2222093;80;21371;-80
2021/06/20 08:41:52;;;;;;;153.75;137.92;;;;;;;30.06;36.60;98756.79;2222018;80;21011;-80
2021/06/20 08:44:53;;;;;;;39.80;35.88;;;;;;;30.11;36.37;98750.60;2221835;80;21003;-79
2021/06/20 08:47:54;;;;;;;31.23;28.12;;;;;;;30.19;36.07;98745.55;2222268;80;20916;-80
2021/06/20 08:50:55;;;;;;;20.25;18.20;;;;;;;30.36;36.09;98741.70;2222194;80;21008;-79
2021/06/20 08:53:57;;;;;;;10.00;8.28;;;;;;;30.50;35.86;98738.03;2222370;80;20979;-80
2021/06/20 08:56:58;;;;;;;10.70;7.08;;;;;;;30.42;35.60;98724.62;2222411;80;20932;-80
2021/06/20 09:00:00;;;;;;;6.15;5.60;;;;;;;30.43;35.67;98733.56;2222037;80;20988;-79
2021/06/20 09:03:01;;;;;;;5.05;4.65;;;;;;;30.55;35.66;98729.14;2222084;80;20992;-80
2021/06/20 09:06:02;;;;;;;8.73;3.85;;;;;;;30.45;35.25;98728.07;2222198;80;20987;-79
2021/06/20 09:09:03;;;;;;;5.03;4.10;;;;;;;30.31;35.16;98725.84;2222117;80;21105;-80
2021/06/20 09:12:04;;;;;;;4.33;4.03;;;;;;;30.37;35.02;98724.09;2221924;80;21008;-80
2021/06/20 09:15:05;;;;;;;238.52;214.45;;;;;;;30.52;34.89;98711.85;2221766;80;20992;-79
2021/06/20 09:18:07;;;;;;;261.87;236.25;;;;;;;30.77;35.22;98718.56;2221922;80;20975;-79
2021/06/20 09:21:08;;;;;;;126.37;113.23;;;;;;;30.96;35.06;98721.64;2222097;80;21067;-80
2021/06/20 09:24:09;;;;;;;56.42;50.88;;;;;;;31.01;35.25;98730.25;2222769;80;21011;-79
2021/06/20 09:27:10;;;;;;;31.70;28.52;;;;;;;30.92;35.07;98741.70;2222580;80;20912;-79
2021/06/20 09:30:11;;;;;;;17.95;16.27;;;;;;;30.80;34.89;98739.04;2222185;80;20924;-79
2021/06/20 09:33:12;;;;;;;10.18;9.38;;;;;;;30.78;34.92;98723.47;2222240;80;21003;-78
2021/06/20 09:36:13;;;;;;;6.30;5.70;;;;;;;30.71;34.74;98715.84;2222675;80;20988;-78
2021/06/20 09:39:14;;;;;;;5.20;4.45;;;;;;;30.64;35.03;98713.21;2222273;80;20912;-79
2021/06/20 09:42:16;;;;;;;334.20;299.40;;;;;;;30.61;35.07;98716.12;2222341;80;20956;-79
2021/06/20 09:45:17;;;;;;;174.85;156.85;;;;;;;30.61;34.87;98706.70;2222662;80;20983;-78
2021/06/20 09:48:17;;;;;;;66.10;59.08;;;;;;;30.59;34.41;98698.34;2222486;80;20955;-79
2021/06/20 09:51:22;;;;;;;26.42;23.52;;;;;;;30.50;34.46;98691.77;2222297;80;20991;-81
2021/06/20 09:54:23;;;;;;;13.90;12.53;;;;;;;30.47;34.63;98689.77;2222570;80;20976;-79
2021/06/20 09:57:24;;;;;;;7.20;6.60;;;;;;;30.49;34.35;98691.88;2222524;80;21007;-78
2021/06/20 10:00:26;;;;;;;5.35;4.20;;;;;;;30.40;34.31;98661.94;2222466;80;21403;-79
2021/06/20 10:03:26;;;;;;;4.12;3.72;;;;;;;30.37;34.33;98670.23;2222285;80;21419;-79
2021/06/20 10:06:27;;;;;;;3.90;3.70;;;;;;;30.42;34.75;98686.06;2222868;80;21014;-79
2021/06/20 10:09:28;;;;;;;5.95;3.92;;;;;;;30.44;34.88;98681.43;2222482;80;20944;-79
2021/06/20 10:12:29;;;;;;;302.32;270.93;;;;;;;30.46;34.57;98680.83;2222412;80;20949;-81
2021/06/20 10:15:31;;;;;;;164.95;147.07;;;;;;;30.45;34.53;98662.09;2223094;80;21004;-80
2021/06/20 10:18:32;;;;;;;86.65;76.25;;;;;;;30.56;34.76;98659.48;2222786;80;20984;-80
2021/06/20 10:21:34;;;;;;;20.10;16.93;;;;;;;30.83;35.03;98653.45;2215067;80;21012;-81
2021/06/20 10:24:35;;;;;;;13.37;12.07;;;;;;;30.89;34.01;98637.31;2212712;81;21020;-79
2021/06/20 10:27:37;;;;;;;8.98;7.08;;;;;;;30.79;33.89;98654.66;2212566;81;20975;-81
2021/06/20 10:30:38;;;;;;;8.33;4.45;;;;;;;30.77;33.73;98651.70;2212533;81;21012;-81
2021/06/20 10:33:41;;;;;;;4.90;4.17;;;;;;;30.80;33.58;98642.90;2212468;81;21595;-80
2021/06/20 10:36:42;;;;;;;6.85;6.12;;;;;;;30.80;33.93;98641.55;2212462;81;20976;-80
2021/06/20 10:39:43;;;;;;;14.93;9.20;;;;;;;30.87;34.01;98644.16;2212458;81;20917;-81
2021/06/20 10:42:44;;;;;;;4.87;4.47;;;;;;;30.92;32.98;98642.48;2212516;81;21024;-80
2021/06/20 10:45:45;;;;;;;3.98;3.67;;;;;;;31.01;33.54;98641.78;2212103;81;20975;-80
2021/06/20 10:48:48;;;;;;;6.00;4.03;;;;;;;31.06;33.42;98637.77;2189973;81;20968;-81
2021/06/20 10:51:48;;;;;;;4.12;3.50;;;;;;;30.97;33.41;98627.68;2212394;81;21395;-81
2021/06/20 10:54:53;;;;;;;3.80;3.50;;;;;;;30.99;33.03;98632.47;2212578;81;21009;-80
2021/06/20 10:57:54;;;;;;;4.80;3.65;;;;;;;30.99;31.75;98627.08;2212568;81;21055;-81
2021/06/20 11:00:55;;;;;;;4.85;2.75;;;;;;;31.06;32.33;98628.34;2212724;81;20952;-81
2021/06/20 11:03:56;;;;;;;9.05;6.85;;;;;;;31.13;31.63;98631.43;2212476;81;20919;-81
2021/06/20 11:06:57;;;;;;;5.83;3.20;;;;;;;31.12;31.86;98628.84;2212496;81;20909;-80
2021/06/20 11:09:58;;;;;;;538.58;381.32;;;;;;;31.06;32.01;98635.08;2212357;81;21016;-80
2021/06/20 11:12:59;;;;;;;17.90;9.65;;;;;;;31.17;31.96;98637.48;2212362;81;20948;-81
2021/06/20 11:16:00;;;;;;;4.00;3.60;;;;;;;31.13;31.87;98644.05;2212649;81;20956;-80
2021/06/20 11:19:01;;;;;;;4.05;3.10;;;;;;;31.09;32.27;98638.52;2212725;81;21067;-80
2021/06/20 11:22:01;;;;;;;4.58;2.77;;;;;;;31.13;32.18;98633.27;2220325;80;20996;-81
2021/06/20 11:25:02;;;;;;;220.27;198.60;;;;;;;31.28;31.85;98629.47;2222794;80;20951;-81
2021/06/20 11:28:03;;;;;;;145.82;130.75;;;;;;;31.38;32.00;98621.54;2222714;80;20963;-80
2021/06/20 11:31:04;;;;;;;78.55;70.37;;;;;;;31.32;31.28;98625.56;2222726;80;20939;-80
2021/06/20 11:34:05;;;;;;;7.70;6.97;;;;;;;31.41;31.23;98629.39;2222791;80;20959;-80
2021/06/20 11:37:06;;;;;;;7.70;7.05;;;;;;;31.46;31.16;98628.06;2222662;80;21015;-81
2021/06/20 11:40:07;;;;;;;9.13;7.95;;;;;;;31.50;30.25;98626.84;2222852;80;20932;-79
2021/06/20 11:43:08;;;;;;;4.30;4.00;;;;;;;31.43;30.67;98634.19;2222636;80;20948;-80
2021/06/20 11:46:09;;;;;;;3.00;2.62;;;;;;;31.46;29.74;98611.88;2222443;80;21011;-80
2021/06/20 11:49:10;;;;;;;2.92;2.72;;;;;;;31.44;30.48;98615.19;2222951;80;21003;-81
2021/06/20 11:52:11;;;;;;;3.02;2.83;;;;;;;31.46;30.32;98607.83;2222384;80;20992;-80
2021/06/20 11:55:12;;;;;;;3.58;2.75;;;;;;;31.52;30.44;98611.89;2222843;80;20976;-79
2021/06/20 11:58:14;;;;;;;2.90;2.60;;;;;;;31.60;30.30;98604.06;2222620;80;20984;-80
2021/06/20 12:01:15;;;;;;;2.37;2.17;;;;;;;31.75;29.99;98602.90;2222810;80;21012;-80
2021/06/20 12:04:16;;;;;;;2.22;2.12;;;;;;;31.73;30.09;98608.91;2223146;80;21012;-81
2021/06/20 12:07:17;;;;;;;4.40;2.37;;;;;;;31.83;29.62;98604.99;2223112;80;21460;-80
2021/06/20 12:10:18;;;;;;;2.60;2.40;;;;;;;31.65;30.38;98601.38;2222738;80;20952;-80
2021/06/20 12:13:19;;;;;;;3.62;2.08;;;;;;;31.68;30.10;98607.88;2222718;80;20964;-81
2021/06/20 12:16:20;;;;;;;327.00;284.87;;;;;;;31.72;29.08;98596.88;2223102;80;21004;-79
2021/06/20 12:19:21;;;;;;;206.20;185.80;;;;;;;31.71;29.29;98591.12;2222853;80;20952;-80
2021/06/20 12:22:22;;;;;;;88.65;79.50;;;;;;;31.66;29.34;98594.14;2222291;80;21007;-79
2021/06/20 12:25:23;;;;;;;121.67;108.52;;;;;;;31.74;29.44;98587.69;2222835;80;20991;-81
2021/06/20 12:28:24;;;;;;;41.40;33.45;;;;;;;31.80;29.27;98586.34;2222731;80;20928;-80
2021/06/20 12:31:25;;;;;;;8.73;7.25;;;;;;;31.86;29.57;98575.92;2222800;80;21007;-79
2021/06/20 12:34:26;;;;;;;4.55;3.33;;;;;;;31.81;30.46;98567.82;2223115;80;21000;-80
2021/06/20 12:37:27;;;;;;;4.28;3.12;;;;;;;31.72;29.98;98567.20;2222940;80;21027;-80
2021/06/20 12:40:28;;;;;;;3.17;2.92;;;;;;;31.71;29.72;98576.28;2222643;80;20952;-80
2021/06/20 12:43:29;;;;;;;2.55;2.45;;;;;;;31.77;29.72;98570.39;2222475;80;21023;-80
2021/06/20 12:46:30;;;;;;;16.35;3.52;;;;;;;31.82;30.20;98570.89;2222644;80;20980;-80
2021/06/20 12:49:31;;;;;;;5.60;3.10;;;;;;;32.00;30.76;98555.92;2222218;80;20981;-80
2021/06/20 12:52:32;;;;;;;2.80;2.55;;;;;;;32.04;31.08;98565.98;2222247;80;21019;-80
2021/06/20 12:55:34;;;;;;;97.82;88.58;;;;;;;32.00;30.62;98566.72;2222613;80;21040;-82
2021/06/20 12:58:35;;;;;;;79.13;71.03;;;;;;;32.10;30.59;98570.43;2222499;80;20959;-82
2021/06/20 13:01:36;;;;;;;12.78;11.68;;;;;;;32.23;30.44;98581.09;2222206;80;20928;-80
2021/06/20 13:04:37;;;;;;;15.05;7.45;;;;;;;32.35;30.10;98577.44;2222499;80;20956;-80
2021/06/20 13:07:38;;;;;;;4.37;4.00;;;;;;;32.21;30.45;98581.22;2222895;80;20976;-79
2021/06/20 13:10:39;;;;;;;4.25;3.87;;;;;;;32.11;30.48;98568.10;2222898;80;20971;-79
2021/06/20 13:13:40;;;;;;;3.40;3.20;;;;;;;32.04;31.00;98568.19;2222865;80;20952;-79
2021/06/20 13:16:40;;;;;;;2.92;2.70;;;;;;;32.06;31.00;98569.42;2222926;80;21012;-79
2021/06/20 13:19:41;;;;;;;3.80;2.62;;;;;;;32.07;30.57;98573.84;2222968;80;21000;-79
2021/06/20 13:22:43;;;;;;;2.22;2.10;;;;;;;31.98;30.05;98565.50;2214099;80;21386;-80
2021/06/20 13:25:50;;;;;;;3.52;2.50;;;;;;;32.14;30.14;98561.59;2212776;81;21024;-80
2021/06/20 13:28:47;;;;;;;8.18;2.30;;;;;;;32.15;30.47;98573.63;2212307;80;21015;-80
2021/06/20 13:31:48;;;;;;;3.87;2.98;;;;;;;32.11;30.08;98578.04;2212382;81;21086;-80
2021/06/20 13:34:49;;;;;;;261.43;236.07;;;;;;;32.13;29.75;98567.98;2212888;81;20968;-79
2021/06/20 13:37:50;;;;;;;100.72;90.55;;;;;;;32.08;29.29;98575.09;2212192;81;21040;-79
2021/06/20 13:40:51;;;;;;;44.98;40.52;;;;;;;32.08;29.29;98575.09;2212549;81;20976;-81
2021/06/20 13:43:52;;;;;;;44.38;32.90;;;;;;;32.06;29.21;98572.12;2212515;81;20941;-79
2021/06/20 13:46:53;;;;;;;13.45;12.33;;;;;;;31.99;29.20;98569.05;2211832;81;20968;-79
2021/06/20 13:49:54;;;;;;;7.22;6.55;;;;;;;32.19;29.25;98562.08;2212267;81;21301;-79
2021/06/20 13:52:57;;;;;;;6.08;5.55;;;;;;;32.19;29.33;98560.73;2212120;81;21356;-80
2021/06/20 13:55:57;;;;;;;5.40;3.50;;;;;;;32.21;29.19;98552.87;2212597;80;21088;-80
2021/06/20 13:58:58;;;;;;;2.52;2.33;;;;;;;32.06;29.73;98554.57;2212731;81;20996;-79
2021/06/20 14:02:00;;;;;;;3.22;2.65;;;;;;;32.04;29.88;98548.44;2212542;81;20960;-79
2021/06/20 14:05:00;;;;;;;2.52;2.10;;;;;;;32.09;29.79;98559.27;2212494;81;20952;-81